createdAt,value
2022-08-09T00:00:21.514Z,15.30
2022-08-09T00:02:51.874Z,15.30
2022-08-09T00:06:16.162Z,15.20
2022-08-09T00:08:31.528Z,15.20
2022-08-09T00:11:05.823Z,15.20
2022-08-09T00:13:49.322Z,15.10
2022-08-09T00:16:17.538Z,15.10
2022-08-09T00:18:54.468Z,15.10
2022-08-09T00:21:22.565Z,15.10
2022-08-09T00:23:57.762Z,15.00
2022-08-09T00:26:32.983Z,15.00
2022-08-09T00:29:02.279Z,15.00
2022-08-09T00:31:59.042Z,15.00
2022-08-09T00:34:19.786Z,15.00
2022-08-09T00:36:48.890Z,15.00
2022-08-09T00:40:14.088Z,15.00
2022-08-09T00:44:10.202Z,14.90
2022-08-09T00:44:55.458Z,14.90
2022-08-09T00:47:24.790Z,14.90
2022-08-09T00:49:54.931Z,14.80
2022-08-09T00:52:29.247Z,14.80
2022-08-09T00:55:00.451Z,14.80
2022-08-09T00:57:34.974Z,14.70
2022-08-09T01:00:20.999Z,14.70
2022-08-09T01:02:52.073Z,14.70
2022-08-09T01:05:46.454Z,14.70
2022-08-09T01:08:26.708Z,14.80
2022-08-09T01:11:04.434Z,14.70
2022-08-09T01:13:59.085Z,14.70
2022-08-09T01:16:35.231Z,14.70
2022-08-09T01:19:16.984Z,14.70
2022-08-09T01:22:16.490Z,14.60
2022-08-09T01:24:57.953Z,14.60
2022-08-09T01:27:31.473Z,14.50
2022-08-09T01:30:04.014Z,14.50
2022-08-09T01:32:36.014Z,14.40
2022-08-09T01:35:28.807Z,14.40
2022-08-09T01:38:08.462Z,14.40
2022-08-09T01:40:43.242Z,14.40
2022-08-09T01:43:13.746Z,14.30
2022-08-09T01:45:44.803Z,14.40
2022-08-09T01:48:16.188Z,14.30
2022-08-09T01:50:48.621Z,14.30
2022-08-09T01:53:23.813Z,14.20
2022-08-09T01:55:58.024Z,14.20
2022-08-09T01:58:30.467Z,14.20
2022-08-09T02:01:00.762Z,14.20
2022-08-09T02:03:30.460Z,14.20
2022-08-09T02:06:06.629Z,14.10
2022-08-09T02:08:57.119Z,14.10
2022-08-09T02:11:42.490Z,14.10
2022-08-09T02:14:25.181Z,14.10
2022-08-09T02:17:14.793Z,14.10
2022-08-09T02:19:45.803Z,14.00
2022-08-09T02:22:27.472Z,14.00
2022-08-09T02:25:15.251Z,14.00
2022-08-09T02:28:00.584Z,14.00
2022-08-09T02:30:46.449Z,14.00
2022-08-09T02:33:18.731Z,14.00
2022-08-09T02:36:03.804Z,13.90
2022-08-09T02:38:35.583Z,13.90
2022-08-09T02:41:09.395Z,13.80
2022-08-09T02:43:51.797Z,13.80
2022-08-09T02:46:27.607Z,13.80
2022-08-09T02:48:59.791Z,13.70
2022-08-09T02:51:37.247Z,13.70
2022-08-09T02:54:13.837Z,13.70
2022-08-09T02:56:48.728Z,13.70
2022-08-09T02:59:26.163Z,13.60
2022-08-09T03:02:07.219Z,13.70
2022-08-09T03:04:40.957Z,13.70
2022-08-09T03:07:14.106Z,13.60
2022-08-09T03:09:56.325Z,13.50
2022-08-09T03:12:25.854Z,13.60
2022-08-09T03:14:54.741Z,13.50
2022-08-09T03:17:27.078Z,13.50
2022-08-09T03:20:03.457Z,13.40
2022-08-09T03:22:42.184Z,13.40
2022-08-09T03:25:25.836Z,13.40
2022-08-09T03:27:56.141Z,13.40
2022-08-09T03:30:29.861Z,13.30
2022-08-09T03:33:17.796Z,13.30
2022-08-09T03:36:13.116Z,13.30
2022-08-09T03:38:42.050Z,13.30
2022-08-09T03:41:15.490Z,13.30
2022-08-09T03:44:03.170Z,13.30
2022-08-09T03:46:32.763Z,13.20
2022-08-09T03:49:08.888Z,13.20
2022-08-09T03:51:56.365Z,13.20
2022-08-09T03:54:32.006Z,13.20
2022-08-09T03:57:04.551Z,13.20
2022-08-09T03:59:53.650Z,13.10
2022-08-09T04:02:30.583Z,13.10
2022-08-09T04:05:06.686Z,13.10
2022-08-09T04:07:52.476Z,13.20
2022-08-09T04:10:29.595Z,13.10
2022-08-09T04:13:01.202Z,13.10
2022-08-09T04:15:51.919Z,13.10
2022-08-09T04:18:21.509Z,13.10
2022-08-09T04:20:51.832Z,13.10
2022-08-09T04:23:23.265Z,13.20
2022-08-09T04:25:53.243Z,13.10
2022-08-09T04:28:32.953Z,13.10
2022-08-09T04:31:05.815Z,13.10
2022-08-09T04:33:47.682Z,13.10
2022-08-09T04:36:25.683Z,13.10
2022-08-09T04:38:54.497Z,13.10
2022-08-09T04:41:23.542Z,13.10
2022-08-09T04:44:04.927Z,13.10
2022-08-09T04:46:37.946Z,13.20
2022-08-09T04:49:40.874Z,13.20
2022-08-09T04:52:11.933Z,13.30
2022-08-09T04:54:48.023Z,13.30
2022-08-09T04:57:15.810Z,13.30
2022-08-09T04:59:50.290Z,13.40
2022-08-09T05:02:18.279Z,13.50
2022-08-09T05:04:47.375Z,13.50
2022-08-09T05:07:19.404Z,13.50
2022-08-09T05:09:49.509Z,13.60
2022-08-09T05:12:18.035Z,13.70
2022-08-09T05:14:50.436Z,13.70
2022-08-09T05:18:42.765Z,13.80
2022-08-09T05:20:09.274Z,13.90
2022-08-09T05:23:54.494Z,13.90
2022-08-09T05:25:28.234Z,14.00
2022-08-09T05:28:00.318Z,14.10
2022-08-09T05:30:30.074Z,14.20
2022-08-09T05:33:00.585Z,14.30
2022-08-09T05:35:29.868Z,14.40
2022-08-09T05:38:01.205Z,14.50
2022-08-09T05:40:29.554Z,14.60
2022-08-09T05:42:57.656Z,14.70
2022-08-09T05:45:25.988Z,14.90
2022-08-09T05:48:13.799Z,14.90
2022-08-09T05:50:51.323Z,15.00
2022-08-09T05:53:36.202Z,15.20
2022-08-09T05:56:10.441Z,15.40
2022-08-09T05:58:44.204Z,15.50
2022-08-09T06:01:16.057Z,15.60
2022-08-09T06:03:58.181Z,15.80
2022-08-09T06:06:26.735Z,16.10
2022-08-09T06:08:55.988Z,16.20
2022-08-09T06:11:24.438Z,16.40
2022-08-09T06:14:09.447Z,16.50
2022-08-09T06:16:37.790Z,16.80
2022-08-09T06:19:09.250Z,17.00
2022-08-09T06:21:37.065Z,17.20
2022-08-09T06:24:19.657Z,17.40
2022-08-09T06:26:47.479Z,17.50
2022-08-09T06:29:16.146Z,17.70
2022-08-09T06:32:08.628Z,17.90
2022-08-09T06:34:31.755Z,18.00
2022-08-09T06:37:01.413Z,18.10
2022-08-09T06:39:58.130Z,18.30
2022-08-09T06:42:24.848Z,18.60
2022-08-09T06:44:58.704Z,18.80
2022-08-09T06:47:30.284Z,18.70
2022-08-09T06:50:14.782Z,18.80
2022-08-09T06:52:48.830Z,18.90
2022-08-09T06:55:24.071Z,19.10
2022-08-09T06:58:02.175Z,19.20
2022-08-09T07:00:49.068Z,19.40
2022-08-09T07:03:20.396Z,19.70
2022-08-09T07:06:04.113Z,19.80
2022-08-09T07:08:34.587Z,19.80
2022-08-09T07:11:06.322Z,19.90
2022-08-09T07:14:04.502Z,20.10
2022-08-09T07:16:41.286Z,20.40
2022-08-09T07:19:15.727Z,20.60
2022-08-09T07:21:57.331Z,21.00
2022-08-09T07:24:32.319Z,21.40
2022-08-09T07:27:27.344Z,21.50
2022-08-09T07:29:59.791Z,21.50
2022-08-09T07:32:33.567Z,21.40
2022-08-09T07:35:08.219Z,21.60
2022-08-09T07:37:42.926Z,21.60
2022-08-09T07:40:17.577Z,21.70
2022-08-09T07:42:51.546Z,21.80
2022-08-09T07:45:37.284Z,21.90
2022-08-09T07:48:06.665Z,22.10
2022-08-09T07:50:36.619Z,22.10
2022-08-09T07:53:05.474Z,22.40
2022-08-09T07:55:41.262Z,22.50
2022-08-09T07:58:26.817Z,22.60
2022-08-09T08:00:58.984Z,23.00
2022-08-09T08:03:36.920Z,22.90
2022-08-09T08:06:05.321Z,22.70
2022-08-09T08:09:00.803Z,23.00
2022-08-09T08:12:25.124Z,23.30
2022-08-09T08:14:10.889Z,23.90
2022-08-09T08:16:39.668Z,24.10
2022-08-09T08:19:18.867Z,24.30
2022-08-09T08:21:52.938Z,24.20
2022-08-09T08:24:20.995Z,23.60
2022-08-09T08:26:56.012Z,23.40
2022-08-09T08:29:28.188Z,23.80
2022-08-09T08:32:04.248Z,24.20
2022-08-09T08:34:34.510Z,24.80
2022-08-09T08:37:05.006Z,24.70
2022-08-09T08:39:39.750Z,24.80
2022-08-09T08:42:12.053Z,24.80
2022-08-09T08:44:43.955Z,24.80
2022-08-09T08:47:15.981Z,24.60
2022-08-09T08:49:46.767Z,24.70
2022-08-09T08:52:52.486Z,24.60
2022-08-09T08:55:05.720Z,24.40
2022-08-09T08:57:35.125Z,24.20
2022-08-09T09:00:07.963Z,24.30
2022-08-09T09:02:42.895Z,24.40
2022-08-09T09:05:20.695Z,24.30
2022-08-09T09:08:03.616Z,24.00
2022-08-09T09:10:33.002Z,23.70
2022-08-09T09:13:05.300Z,23.40
2022-08-09T09:15:40.335Z,23.20
2022-08-09T09:18:14.070Z,23.50
2022-08-09T09:20:43.612Z,23.90
2022-08-09T09:23:14.215Z,24.40
2022-08-09T09:26:05.035Z,24.80
2022-08-09T09:29:02.212Z,24.70
2022-08-09T09:32:07.063Z,24.80
2022-08-09T09:34:14.478Z,24.70
2022-08-09T09:36:52.900Z,24.30
2022-08-09T09:39:25.663Z,24.30
2022-08-09T09:42:24.618Z,24.30
2022-08-09T09:44:57.442Z,24.80
2022-08-09T09:47:28.556Z,25.30
2022-08-09T09:50:14.693Z,25.20
2022-08-09T09:52:52.693Z,25.10
2022-08-09T09:55:28.000Z,25.00
2022-08-09T09:58:16.211Z,25.20
2022-08-09T10:00:53.852Z,25.70
2022-08-09T10:03:56.976Z,26.10
2022-08-09T10:06:31.968Z,26.40
2022-08-09T10:09:02.858Z,26.70
2022-08-09T10:11:59.322Z,26.90
2022-08-09T10:14:27.403Z,27.10
2022-08-09T10:17:40.303Z,27.10
2022-08-09T10:19:53.136Z,27.00
2022-08-09T10:22:33.410Z,26.70
2022-08-09T10:25:06.955Z,26.00
2022-08-09T10:27:57.198Z,25.80
2022-08-09T10:34:04.583Z,25.40
2022-08-09T10:36:09.688Z,25.40
2022-08-09T10:38:56.780Z,25.00
2022-08-09T10:41:28.279Z,25.40
2022-08-09T10:43:59.746Z,25.90
2022-08-09T10:46:57.187Z,26.30
2022-08-09T10:49:49.809Z,26.70
2022-08-09T10:52:42.654Z,27.20
2022-08-09T10:55:24.858Z,27.80
2022-08-09T10:57:55.506Z,28.20
2022-08-09T11:00:50.947Z,28.30
2022-08-09T11:03:46.877Z,28.10
2022-08-09T11:06:20.784Z,28.40
2022-08-09T11:08:53.508Z,28.30
2022-08-09T11:11:22.890Z,28.10
2022-08-09T11:14:28.084Z,27.80
2022-08-09T11:16:56.982Z,27.10
2022-08-09T11:20:11.462Z,26.70
2022-08-09T11:22:59.974Z,26.40
2022-08-09T11:25:47.942Z,26.60
2022-08-09T11:28:54.139Z,26.60
2022-08-09T11:31:49.403Z,26.80
2022-08-09T11:34:28.287Z,27.50
2022-08-09T11:36:58.680Z,28.20
2022-08-09T11:39:38.006Z,28.30
2022-08-09T11:42:14.719Z,28.00
2022-08-09T11:44:48.254Z,27.60
2022-08-09T11:47:16.769Z,27.00
2022-08-09T11:50:53.409Z,26.70
2022-08-09T11:53:28.078Z,26.40
2022-08-09T11:56:41.318Z,26.20
2022-08-09T11:59:12.211Z,25.90
2022-08-09T12:02:34.898Z,25.60
2022-08-09T12:04:37.174Z,25.60
2022-08-09T12:07:08.520Z,25.70
2022-08-09T12:09:37.412Z,25.70
2022-08-09T12:12:13.271Z,25.80
2022-08-09T12:15:04.253Z,25.90
2022-08-09T12:17:44.462Z,25.90
2022-08-09T12:20:21.543Z,26.30
2022-08-09T12:22:53.045Z,26.60
2022-08-09T12:25:32.017Z,26.80
2022-08-09T12:29:12.461Z,27.10
2022-08-09T12:31:02.921Z,27.20
2022-08-09T12:33:59.237Z,27.40
2022-08-09T12:36:31.894Z,27.50
2022-08-09T12:39:01.414Z,27.40
2022-08-09T12:41:36.234Z,27.60
2022-08-09T12:44:10.231Z,27.50
2022-08-09T12:46:48.980Z,27.40
2022-08-09T12:49:19.051Z,26.70
2022-08-09T12:52:02.167Z,26.60
2022-08-09T12:54:31.215Z,26.50
2022-08-09T12:56:59.826Z,26.30
2022-08-09T12:59:57.888Z,26.30
2022-08-09T13:02:22.668Z,26.00
2022-08-09T13:05:02.500Z,26.00
2022-08-09T13:07:50.696Z,26.00
2022-08-09T13:10:18.788Z,26.30
2022-08-09T13:13:09.679Z,26.70
2022-08-09T13:15:51.004Z,26.70
2022-08-09T13:18:20.377Z,26.50
2022-08-09T13:22:33.773Z,26.30
2022-08-09T13:24:15.632Z,26.50
2022-08-09T13:26:37.522Z,26.80
2022-08-09T13:29:12.947Z,26.90
2022-08-09T13:32:17.248Z,27.00
2022-08-09T13:34:49.402Z,27.40
2022-08-09T13:37:50.712Z,27.40
2022-08-09T13:41:55.139Z,27.60
2022-08-09T13:42:57.946Z,26.70
2022-08-09T13:45:32.590Z,26.30
2022-08-09T13:48:14.454Z,26.50
2022-08-09T13:50:44.464Z,26.40
2022-08-09T13:53:16.581Z,26.30
2022-08-09T13:55:44.802Z,26.00
2022-08-09T13:58:16.088Z,25.90
2022-08-09T14:00:48.262Z,25.80
2022-08-09T14:04:02.774Z,25.80
2022-08-09T14:06:19.532Z,25.90
2022-08-09T14:08:54.323Z,26.30
2022-08-09T14:11:23.283Z,26.10
2022-08-09T14:14:21.943Z,25.90
2022-08-09T14:16:40.372Z,25.70
2022-08-09T14:19:08.374Z,25.50
2022-08-09T14:21:37.599Z,25.40
2022-08-09T14:24:18.394Z,25.30
2022-08-09T14:26:51.976Z,25.40
2022-08-09T14:30:18.681Z,25.60
2022-08-09T14:32:13.148Z,25.50
2022-08-09T14:34:44.439Z,25.50
2022-08-09T14:37:14.103Z,25.40
2022-08-09T14:39:48.095Z,25.40
2022-08-09T14:42:31.966Z,25.30
2022-08-09T14:46:55.436Z,25.20
2022-08-09T14:47:58.423Z,24.90
2022-08-09T14:50:30.400Z,25.00
2022-08-09T14:53:00.333Z,25.00
2022-08-09T14:55:31.965Z,25.20
2022-08-09T14:58:02.957Z,25.40
2022-08-09T15:00:31.940Z,25.40
2022-08-09T15:03:01.686Z,25.40
2022-08-09T15:05:31.643Z,25.50
2022-08-09T15:08:01.043Z,25.60
2022-08-09T15:10:31.517Z,25.70
2022-08-09T15:13:01.291Z,25.90
2022-08-09T15:15:29.776Z,26.20
2022-08-09T15:18:02.439Z,26.20
2022-08-09T15:21:56.827Z,26.10
2022-08-09T15:24:02.196Z,25.80
2022-08-09T15:26:19.287Z,25.40
2022-08-09T15:28:57.486Z,25.10
2022-08-09T15:31:41.002Z,25.00
2022-08-09T15:34:33.439Z,25.00
2022-08-09T15:37:01.009Z,24.90
2022-08-09T15:39:44.014Z,24.80
2022-08-09T15:42:21.887Z,24.80
2022-08-09T15:44:50.188Z,25.10
2022-08-09T15:47:23.629Z,25.10
2022-08-09T15:50:04.632Z,24.90
2022-08-09T15:52:34.518Z,24.80
2022-08-09T15:55:04.238Z,24.90
2022-08-09T15:57:34.963Z,24.90
2022-08-09T16:00:08.428Z,25.00
2022-08-09T16:02:36.391Z,24.80
2022-08-09T16:05:06.790Z,24.60
2022-08-09T16:07:39.312Z,24.60
2022-08-09T16:10:38.919Z,24.50
2022-08-09T16:13:03.304Z,24.50
2022-08-09T16:16:09.753Z,24.40
2022-08-09T16:18:19.113Z,24.30
2022-08-09T16:20:48.626Z,24.40
2022-08-09T16:23:19.857Z,24.50
2022-08-09T16:25:51.770Z,24.60
2022-08-09T16:28:29.040Z,24.50
2022-08-09T16:30:58.785Z,24.50
2022-08-09T16:33:31.026Z,24.40
2022-08-09T16:36:08.438Z,24.40
2022-08-09T16:38:42.548Z,24.40
2022-08-09T16:41:11.715Z,24.40
2022-08-09T16:43:45.550Z,24.30
2022-08-09T16:46:13.848Z,24.30
2022-08-09T16:48:59.318Z,24.30
2022-08-09T16:51:30.668Z,24.30
2022-08-09T16:56:49.102Z,24.20
2022-08-09T16:59:17.452Z,24.10
2022-08-09T17:01:50.682Z,24.10
2022-08-09T17:04:27.979Z,24.00
2022-08-09T17:08:41.641Z,24.00
2022-08-09T17:09:47.549Z,24.00
2022-08-09T17:12:19.345Z,24.00
2022-08-09T17:14:48.445Z,23.90
2022-08-09T17:17:26.777Z,23.90
2022-08-09T17:20:28.914Z,23.70
2022-08-09T17:22:50.087Z,23.70
2022-08-09T17:25:19.915Z,23.50
2022-08-09T17:27:53.902Z,23.50
2022-08-09T17:30:25.700Z,23.50
2022-08-09T17:33:00.631Z,23.60
2022-08-09T17:35:29.246Z,23.60
2022-08-09T17:38:02.629Z,23.50
2022-08-09T17:40:41.107Z,23.40
2022-08-09T17:43:32.974Z,23.40
2022-08-09T17:46:02.633Z,23.40
2022-08-09T17:48:33.019Z,23.30
2022-08-09T17:51:09.786Z,23.20
2022-08-09T17:53:52.323Z,23.10
2022-08-09T17:56:26.840Z,23.00
2022-08-09T17:58:59.619Z,23.00
2022-08-09T18:01:57.863Z,23.00
2022-08-09T18:04:17.615Z,22.90
2022-08-09T18:06:53.997Z,22.90
2022-08-09T18:09:24.726Z,22.80
2022-08-09T18:12:05.339Z,22.70
2022-08-09T18:14:53.948Z,22.70
2022-08-09T18:17:27.529Z,22.60
2022-08-09T18:20:57.443Z,22.60
2022-08-09T18:23:04.941Z,22.50
2022-08-09T18:25:50.562Z,22.40
2022-08-09T18:30:39.249Z,22.30
2022-08-09T18:31:12.892Z,22.30
2022-08-09T18:33:40.906Z,22.20
2022-08-09T18:36:14.433Z,22.20
2022-08-09T18:38:58.801Z,22.10
2022-08-09T18:41:29.083Z,22.10
2022-08-09T18:44:03.340Z,22.10
2022-08-09T18:46:47.008Z,22.10
2022-08-09T18:49:19.833Z,22.10
2022-08-09T18:51:55.035Z,22.10
2022-08-09T18:54:29.957Z,22.10
2022-08-09T18:57:05.794Z,22.10
2022-08-09T18:59:37.375Z,22.10
2022-08-09T19:02:18.515Z,22.00
2022-08-09T19:04:47.565Z,22.00
2022-08-09T19:07:28.647Z,21.90
2022-08-09T19:10:15.447Z,21.80
2022-08-09T19:12:50.326Z,21.70
2022-08-09T19:15:29.902Z,21.60
2022-08-09T19:17:59.507Z,21.40
2022-08-09T19:20:34.100Z,21.30
2022-08-09T19:23:02.628Z,21.20
2022-08-09T19:26:01.079Z,21.10
2022-08-09T19:28:22.287Z,21.10
2022-08-09T19:30:56.758Z,21.00
2022-08-09T19:33:26.255Z,20.90
2022-08-09T19:35:57.199Z,20.80
2022-08-09T19:38:27.155Z,20.70
2022-08-09T19:40:55.146Z,20.70
2022-08-09T19:44:02.129Z,20.60
2022-08-09T19:46:14.709Z,20.60
2022-08-09T19:49:01.018Z,20.50
2022-08-09T19:51:31.387Z,20.40
2022-08-09T19:53:59.522Z,20.30
2022-08-09T19:56:28.544Z,20.30
2022-08-09T19:59:18.309Z,20.30
2022-08-09T20:02:01.125Z,20.20
2022-08-09T20:04:37.717Z,20.10
2022-08-09T20:07:12.300Z,20.00
2022-08-09T20:09:49.248Z,19.90
2022-08-09T20:12:29.929Z,19.80
2022-08-09T20:16:31.910Z,19.80
2022-08-09T20:17:54.929Z,19.70
2022-08-09T20:20:24.927Z,19.70
2022-08-09T20:22:56.287Z,19.60
2022-08-09T20:25:25.319Z,19.50
2022-08-09T20:27:53.236Z,19.40
2022-08-09T20:30:25.243Z,19.40
2022-08-09T20:32:53.816Z,19.30
2022-08-09T20:35:21.971Z,19.20
2022-08-09T20:38:23.993Z,19.20
2022-08-09T20:40:41.072Z,19.10
2022-08-09T20:43:18.135Z,19.00
2022-08-09T20:45:59.837Z,19.00
2022-08-09T20:48:31.817Z,18.90
2022-08-09T20:51:00.947Z,18.80
2022-08-09T20:53:37.652Z,18.80
2022-08-09T20:56:09.318Z,18.80
2022-08-09T20:58:50.142Z,18.70
2022-08-09T21:01:34.296Z,18.70
2022-08-09T21:05:48.179Z,18.60
2022-08-09T21:06:54.957Z,18.50
2022-08-09T21:09:32.643Z,18.40
2022-08-09T21:14:42.389Z,18.30
2022-08-09T21:18:23.812Z,18.30
2022-08-09T21:20:22.700Z,18.20
2022-08-09T21:22:52.591Z,18.10
2022-08-09T21:25:44.047Z,18.00
2022-08-09T21:28:35.434Z,18.00
2022-08-09T21:31:16.500Z,17.90
2022-08-09T21:33:44.795Z,17.90
2022-08-09T21:36:12.800Z,17.90
2022-08-09T21:38:40.677Z,17.80
2022-08-09T21:41:09.798Z,17.80
2022-08-09T21:43:57.100Z,17.80
2022-08-09T21:46:27.629Z,17.80
2022-08-09T21:48:58.222Z,17.70
2022-08-09T21:51:36.175Z,17.70
2022-08-09T21:54:12.177Z,17.70
2022-08-09T21:56:54.158Z,17.60
2022-08-09T21:59:25.399Z,17.50
2022-08-09T22:02:00.422Z,17.50
2022-08-09T22:04:55.085Z,17.40
2022-08-09T22:07:35.358Z,17.40
2022-08-09T22:10:06.783Z,17.30
2022-08-09T22:12:38.055Z,17.30
2022-08-09T22:15:16.474Z,17.20
2022-08-09T22:17:46.386Z,17.20
2022-08-09T22:20:17.041Z,17.10
2022-08-09T22:22:50.566Z,17.10
2022-08-09T22:26:07.646Z,17.00
2022-08-09T22:28:08.654Z,17.00
2022-08-09T22:30:36.690Z,17.00
2022-08-09T22:33:09.658Z,17.00
2022-08-09T22:36:01.531Z,16.90
2022-08-09T22:38:26.326Z,16.90
2022-08-09T22:40:57.392Z,16.80
2022-08-09T22:44:00.764Z,16.80
2022-08-09T22:48:11.473Z,16.80
2022-08-09T22:49:09.992Z,16.70
2022-08-09T22:51:39.576Z,16.70
2022-08-09T22:54:21.376Z,16.60
2022-08-09T22:56:50.861Z,16.60
2022-08-09T22:59:55.180Z,16.60
2022-08-09T23:02:15.122Z,16.60
2022-08-09T23:04:53.400Z,16.50
2022-08-09T23:08:21.237Z,16.50
2022-08-09T23:10:28.482Z,16.40
2022-08-09T23:12:56.278Z,16.40
2022-08-09T23:15:25.825Z,16.40
2022-08-09T23:17:53.769Z,16.40
2022-08-09T23:20:21.756Z,16.30
2022-08-09T23:22:49.895Z,16.30
2022-08-09T23:25:17.697Z,16.20
2022-08-09T23:28:00.540Z,16.20
2022-08-09T23:30:34.869Z,16.10
2022-08-09T23:33:02.754Z,16.00
2022-08-09T23:35:30.542Z,16.00
2022-08-09T23:38:18.821Z,16.00
2022-08-09T23:40:46.747Z,15.90
2022-08-09T23:43:14.597Z,16.00
2022-08-09T23:45:43.726Z,16.00
2022-08-09T23:48:11.834Z,15.90
2022-08-09T23:50:39.841Z,15.90
2022-08-09T23:53:08.106Z,15.80
2022-08-09T23:55:38.877Z,15.80
2022-08-09T23:58:10.746Z,15.80
